createdAt,value
2018-02-14T00:00:23.425Z,99.99
2018-02-14T00:01:23.416Z,99.99
2018-02-14T00:02:23.379Z,99.99
2018-02-14T00:03:23.287Z,99.99
2018-02-14T00:04:23.299Z,99.99
2018-02-14T00:05:23.171Z,99.99
2018-02-14T00:06:23.096Z,99.99
2018-02-14T00:07:23.137Z,99.99
2018-02-14T00:08:23.215Z,99.99
2018-02-14T00:09:23.033Z,99.99
2018-02-14T00:10:22.952Z,99.99
2018-02-14T00:11:23.073Z,99.99
2018-02-14T00:12:22.805Z,99.99
2018-02-14T00:13:22.937Z,99.99
2018-02-14T00:14:23.387Z,99.99
2018-02-14T00:15:22.739Z,99.99
2018-02-14T00:16:22.755Z,99.99
2018-02-14T00:17:22.587Z,99.99
2018-02-14T00:18:22.527Z,99.99
2018-02-14T00:19:23.381Z,99.99
2018-02-14T00:20:22.453Z,99.99
2018-02-14T00:21:22.359Z,99.99
2018-02-14T00:22:22.883Z,99.99
2018-02-14T00:23:22.373Z,99.99
2018-02-14T00:24:22.256Z,99.99
2018-02-14T00:25:22.318Z,99.99
2018-02-14T00:26:22.264Z,99.99
2018-02-14T00:27:22.232Z,99.99
2018-02-14T00:28:22.031Z,99.99
2018-02-14T00:29:22.897Z,99.99
2018-02-14T00:30:21.962Z,99.99
2018-02-14T00:31:21.851Z,99.99
2018-02-14T00:32:21.920Z,99.68
2018-02-14T00:33:21.804Z,99.87
2018-02-14T00:34:21.864Z,99.59
2018-02-14T00:35:21.709Z,99.78
2018-02-14T00:36:21.673Z,99.99
2018-02-14T00:37:21.539Z,99.99
2018-02-14T00:38:21.645Z,99.99
2018-02-14T00:39:21.467Z,99.99
2018-02-14T00:40:21.567Z,99.87
2018-02-14T00:41:21.489Z,99.99
2018-02-14T00:42:21.305Z,99.99
2018-02-14T00:43:21.411Z,99.99
2018-02-14T00:44:21.290Z,99.99
2018-02-14T00:45:21.195Z,99.99
2018-02-14T00:46:21.132Z,99.99
2018-02-14T00:47:21.241Z,99.99
2018-02-14T00:48:21.041Z,99.78
2018-02-14T00:49:21.030Z,99.99
2018-02-14T00:50:21.028Z,99.78
2018-02-14T00:51:20.845Z,99.99
2018-02-14T00:52:20.849Z,99.99
2018-02-14T00:53:20.742Z,99.99
2018-02-14T00:54:20.784Z,99.97
2018-02-14T00:55:20.746Z,99.59
2018-02-14T00:56:21.386Z,99.78
2018-02-14T00:57:20.684Z,99.78
2018-02-14T00:58:20.661Z,99.97
2018-02-14T00:59:20.511Z,99.78
2018-02-14T01:00:20.428Z,99.87
2018-02-14T01:01:20.576Z,99.87
2018-02-14T01:02:20.367Z,99.99
2018-02-14T01:03:20.294Z,99.99
2018-02-14T01:04:20.266Z,99.99
2018-02-14T01:05:20.212Z,99.99
2018-02-14T01:06:20.091Z,99.99
2018-02-14T01:07:20.164Z,99.68
2018-02-14T01:08:20.069Z,99.68
2018-02-14T01:09:19.969Z,99.87
2018-02-14T01:10:20.092Z,99.99
2018-02-14T01:11:19.948Z,99.87
2018-02-14T01:12:19.774Z,99.68
2018-02-14T01:13:19.745Z,99.87
2018-02-14T01:14:19.727Z,99.78
2018-02-14T01:15:19.634Z,99.99
2018-02-14T01:16:19.603Z,99.99
2018-02-14T01:17:19.665Z,99.78
2018-02-14T01:18:19.544Z,99.97
2018-02-14T01:19:19.624Z,99.99
2018-02-14T01:20:19.469Z,99.99
2018-02-14T01:21:19.360Z,99.99
2018-02-14T01:22:19.421Z,99.99
2018-02-14T01:23:19.445Z,99.87
2018-02-14T01:24:19.293Z,99.59
2018-02-14T01:25:19.136Z,99.59
2018-02-14T01:26:19.139Z,99.59
2018-02-14T01:27:19.092Z,99.78
2018-02-14T01:28:19.180Z,99.97
2018-02-14T01:29:19.026Z,99.78
2018-02-14T01:30:18.889Z,99.87
2018-02-14T01:31:18.896Z,99.78
2018-02-14T01:32:18.830Z,99.68
2018-02-14T01:33:19.397Z,99.78
2018-02-14T01:34:18.748Z,99.78
2018-02-14T01:35:18.634Z,99.87
2018-02-14T01:36:18.563Z,99.99
2018-02-14T01:37:18.755Z,99.78
2018-02-14T01:38:18.466Z,99.97
2018-02-14T01:39:18.430Z,99.78
2018-02-14T01:40:18.403Z,99.12
2018-02-14T01:41:18.393Z,99.40
2018-02-14T01:42:18.381Z,99.40
2018-02-14T01:43:18.246Z,99.54
2018-02-14T01:44:18.282Z,99.91
2018-02-14T01:45:18.103Z,99.59
2018-02-14T01:46:18.130Z,99.87
2018-02-14T01:47:18.164Z,99.78
2018-02-14T01:48:17.970Z,99.50
2018-02-14T01:49:17.935Z,99.16
2018-02-14T01:50:18.090Z,99.26
2018-02-14T01:51:17.825Z,98.88
2018-02-14T01:52:17.812Z,98.88
2018-02-14T01:53:17.737Z,99.73
2018-02-14T01:54:17.657Z,99.73
2018-02-14T01:55:17.624Z,99.82
2018-02-14T01:56:17.603Z,99.99
2018-02-14T01:57:17.721Z,99.87
2018-02-14T01:58:17.467Z,99.87
2018-02-14T01:59:17.462Z,99.59
2018-02-14T02:00:17.420Z,99.59
2018-02-14T02:01:17.314Z,99.78
2018-02-14T02:02:17.460Z,99.78
2018-02-14T02:03:17.898Z,99.59
2018-02-14T02:04:17.174Z,99.21
2018-02-14T02:05:17.101Z,99.31
2018-02-14T02:06:17.108Z,99.26
2018-02-14T02:07:17.154Z,99.59
2018-02-14T02:08:17.150Z,99.40
2018-02-14T02:09:16.952Z,99.59
2018-02-14T02:10:16.839Z,99.78
2018-02-14T02:11:16.942Z,99.87
2018-02-14T02:12:16.765Z,99.31
2018-02-14T02:13:16.745Z,98.97
2018-02-14T02:14:16.802Z,98.69
2018-02-14T02:15:16.621Z,98.69
2018-02-14T02:16:16.688Z,98.79
2018-02-14T02:17:16.522Z,98.60
2018-02-14T02:18:16.498Z,99.07
2018-02-14T02:19:16.894Z,99.91
2018-02-14T02:20:16.555Z,99.78
2018-02-14T02:21:16.890Z,99.78
2018-02-14T02:22:16.219Z,99.59
2018-02-14T02:23:16.388Z,99.40
2018-02-14T02:24:16.165Z,99.12
2018-02-14T02:25:16.068Z,99.59
2018-02-14T02:26:17.992Z,99.07
2018-02-14T02:27:15.994Z,99.07
2018-02-14T02:28:16.021Z,99.35
2018-02-14T02:29:15.922Z,98.50
2018-02-14T02:30:15.961Z,98.97
2018-02-14T02:31:15.829Z,98.97
2018-02-14T02:32:15.755Z,98.60
2018-02-14T02:33:15.667Z,98.88
2018-02-14T02:34:15.856Z,98.60
2018-02-14T02:35:15.604Z,97.94
2018-02-14T02:36:15.580Z,98.22
2018-02-14T02:37:15.483Z,98.03
2018-02-14T02:38:15.547Z,98.13
2018-02-14T02:39:15.542Z,98.97
2018-02-14T02:40:15.520Z,99.35
2018-02-14T02:41:15.494Z,99.35
2018-02-14T02:42:15.220Z,99.35
2018-02-14T02:43:15.221Z,99.26
2018-02-14T02:44:15.135Z,98.88
2018-02-14T02:45:15.300Z,98.97
2018-02-14T02:46:15.191Z,98.97
2018-02-14T02:47:15.024Z,98.60
2018-02-14T02:48:15.043Z,98.88
2018-02-14T02:49:14.970Z,98.97
2018-02-14T02:50:14.842Z,98.88
2018-02-14T02:51:14.788Z,98.88
2018-02-14T02:52:14.825Z,98.88
2018-02-14T02:53:14.690Z,98.88
2018-02-14T02:54:14.691Z,98.97
2018-02-14T02:55:14.693Z,98.13
2018-02-14T02:56:14.558Z,98.22
2018-02-14T02:57:14.605Z,98.69
2018-02-14T02:58:14.554Z,98.32
2018-02-14T02:59:14.392Z,98.69
2018-02-14T03:00:14.362Z,98.79
2018-02-14T03:01:14.249Z,99.07
2018-02-14T03:02:14.891Z,98.69
2018-02-14T03:03:14.172Z,99.35
2018-02-14T03:04:14.902Z,99.07
2018-02-14T03:05:14.098Z,99.26
2018-02-14T03:06:14.160Z,99.26
2018-02-14T03:07:14.887Z,99.16
2018-02-14T03:08:14.022Z,98.88
2018-02-14T03:09:13.848Z,98.69
2018-02-14T03:10:13.823Z,98.69
2018-02-14T03:11:13.921Z,98.13
2018-02-14T03:12:13.845Z,98.69
2018-02-14T03:13:13.845Z,99.07
2018-02-14T03:14:14.385Z,98.79
2018-02-14T03:15:14.389Z,98.88
2018-02-14T03:16:13.540Z,98.88
2018-02-14T03:17:13.468Z,98.88
2018-02-14T03:18:13.541Z,98.97
2018-02-14T03:19:13.331Z,98.97
2018-02-14T03:20:13.887Z,98.69
2018-02-14T03:21:13.894Z,98.60
2018-02-14T03:22:13.326Z,98.97
2018-02-14T03:23:13.140Z,98.88
2018-02-14T03:24:13.119Z,98.69
2018-02-14T03:25:13.170Z,98.69
2018-02-14T03:26:12.977Z,98.69
2018-02-14T03:27:13.116Z,98.88
2018-02-14T03:28:12.984Z,98.88
2018-02-14T03:29:12.923Z,98.97
2018-02-14T03:30:12.764Z,99.07
2018-02-14T03:31:12.706Z,98.79
2018-02-14T03:32:12.787Z,98.22
2018-02-14T03:33:12.689Z,97.75
2018-02-14T03:34:12.743Z,98.13
2018-02-14T03:35:12.687Z,98.32
2018-02-14T03:36:13.387Z,98.50
2018-02-14T03:37:12.520Z,98.50
2018-02-14T03:38:12.417Z,98.60
2018-02-14T03:39:12.356Z,98.50
2018-02-14T03:40:12.297Z,98.50
2018-02-14T03:41:12.377Z,98.32
2018-02-14T03:42:12.305Z,98.69
2018-02-14T03:43:12.227Z,98.88
2018-02-14T03:44:12.895Z,98.88
2018-02-14T03:45:12.120Z,98.41
2018-02-14T03:46:11.992Z,98.69
2018-02-14T03:47:12.384Z,98.41
2018-02-14T03:48:11.847Z,98.22
2018-02-14T03:49:12.008Z,98.32
2018-02-14T03:50:11.955Z,98.32
2018-02-14T03:51:11.788Z,98.97
2018-02-14T03:52:11.904Z,98.60
2018-02-14T03:53:11.627Z,98.03
2018-02-14T03:54:11.804Z,97.56
2018-02-14T03:55:11.512Z,97.75
2018-02-14T03:56:11.587Z,98.32
2018-02-14T03:57:11.539Z,98.32
2018-02-14T03:58:11.517Z,98.41
2018-02-14T03:59:11.448Z,98.97
2018-02-14T04:00:11.316Z,98.69
2018-02-14T04:01:11.429Z,98.32
2018-02-14T04:02:11.213Z,98.60
2018-02-14T04:03:11.203Z,98.69
2018-02-14T04:04:11.125Z,98.88
2018-02-14T04:05:11.118Z,98.79
2018-02-14T04:06:11.089Z,98.79
2018-02-14T04:07:11.037Z,98.22
2018-02-14T04:08:10.980Z,98.69
2018-02-14T04:09:10.883Z,98.32
2018-02-14T04:10:10.873Z,98.60
2018-02-14T04:11:10.768Z,98.41
2018-02-14T04:12:10.734Z,98.50
2018-02-14T04:13:10.597Z,98.41
2018-02-14T04:14:10.664Z,97.85
2018-02-14T04:15:10.613Z,98.22
2018-02-14T04:16:10.579Z,97.94
2018-02-14T04:17:10.553Z,98.03
2018-02-14T04:18:10.298Z,98.03
2018-02-14T04:19:10.306Z,98.03
2018-02-14T04:20:10.287Z,98.03
2018-02-14T04:21:10.177Z,98.32
2018-02-14T04:22:10.136Z,98.03
2018-02-14T04:23:10.209Z,98.60
2018-02-14T04:24:09.989Z,98.79
2018-02-14T04:25:11.045Z,98.69
2018-02-14T04:26:10.029Z,98.50
2018-02-14T04:27:10.394Z,98.41
2018-02-14T04:28:09.808Z,98.32
2018-02-14T04:29:09.771Z,98.13
2018-02-14T04:30:09.699Z,98.32
2018-02-14T04:31:09.836Z,98.69
2018-02-14T04:32:09.587Z,98.13
2018-02-14T04:33:09.543Z,97.85
2018-02-14T04:34:09.649Z,97.66
2018-02-14T04:35:09.526Z,97.38
2018-02-14T04:36:09.890Z,97.19
2018-02-14T04:37:09.315Z,97.66
2018-02-14T04:38:09.506Z,97.38
2018-02-14T04:39:09.247Z,97.56
2018-02-14T04:40:09.349Z,98.13
2018-02-14T04:41:09.176Z,98.50
2018-02-14T04:42:09.213Z,98.32
2018-02-14T04:43:09.168Z,97.85
2018-02-14T04:44:08.974Z,98.13
2018-02-14T04:45:08.949Z,98.03
2018-02-14T04:46:08.922Z,97.38
2018-02-14T04:47:09.386Z,97.38
2018-02-14T04:48:08.946Z,97.75
2018-02-14T04:49:08.778Z,97.38
2018-02-14T04:50:09.388Z,98.13
2018-02-14T04:51:08.623Z,98.03
2018-02-14T04:52:09.388Z,98.03
2018-02-14T04:53:08.531Z,98.50
2018-02-14T04:54:08.449Z,98.60
2018-02-14T04:55:08.516Z,98.32
2018-02-14T04:56:08.406Z,98.32
2018-02-14T04:57:08.318Z,98.32
2018-02-14T04:58:08.295Z,98.50
2018-02-14T04:59:08.890Z,98.03
2018-02-14T05:00:08.135Z,98.03
2018-02-14T05:01:08.191Z,97.85
2018-02-14T05:02:08.053Z,97.66
2018-02-14T05:03:08.068Z,98.13
2018-02-14T05:04:08.080Z,98.13
2018-02-14T05:05:07.897Z,97.56
2018-02-14T05:06:07.973Z,97.28
2018-02-14T05:07:08.389Z,96.81
2018-02-14T05:08:08.383Z,97.00
2018-02-14T05:09:07.732Z,97.09
2018-02-14T05:10:07.660Z,97.47
2018-02-14T05:11:07.766Z,97.75
2018-02-14T05:12:07.655Z,97.75
2018-02-14T05:13:08.389Z,98.13
2018-02-14T05:14:07.546Z,98.03
2018-02-14T05:15:07.365Z,98.13
2018-02-14T05:16:07.328Z,98.22
2018-02-14T05:17:07.276Z,97.85
2018-02-14T05:18:07.375Z,97.85
2018-02-14T05:19:07.231Z,97.85
2018-02-14T05:20:07.208Z,98.03
2018-02-14T05:21:07.251Z,98.32
2018-02-14T05:22:07.030Z,97.66
2018-02-14T05:23:06.995Z,97.85
2018-02-14T05:24:06.973Z,97.19
2018-02-14T05:25:07.389Z,97.56
2018-02-14T05:26:06.893Z,97.56
2018-02-14T05:27:06.767Z,97.56
2018-02-14T05:28:06.929Z,97.38
2018-02-14T05:29:06.696Z,97.38
2018-02-14T05:30:06.597Z,97.56
2018-02-14T05:31:06.535Z,97.56
2018-02-14T05:32:06.605Z,97.38
2018-02-14T05:33:06.464Z,97.38
2018-02-14T05:34:06.381Z,97.38
2018-02-14T05:35:06.351Z,97.38
2018-02-14T05:36:06.289Z,97.38
2018-02-14T05:37:06.465Z,98.32
2018-02-14T05:38:06.236Z,97.94
2018-02-14T05:39:06.360Z,98.03
2018-02-14T05:40:06.119Z,97.85
2018-02-14T05:41:06.175Z,98.13
2018-02-14T05:42:06.084Z,98.13
2018-02-14T05:43:06.893Z,98.03
2018-02-14T05:44:05.885Z,98.13
2018-02-14T05:45:05.851Z,97.66
2018-02-14T05:46:05.946Z,97.94
2018-02-14T05:47:05.728Z,98.41
2018-02-14T05:48:05.657Z,98.03
2018-02-14T05:49:05.659Z,98.41
2018-02-14T05:50:05.738Z,98.32
2018-02-14T05:51:05.518Z,97.85
2018-02-14T05:52:05.479Z,97.38
2018-02-14T05:53:05.888Z,97.75
2018-02-14T05:54:05.361Z,97.38
2018-02-14T05:55:05.890Z,96.72
2018-02-14T05:56:05.248Z,96.81
2018-02-14T05:57:05.274Z,97.09
2018-02-14T05:58:05.326Z,97.09
2018-02-14T05:59:05.071Z,97.28
2018-02-14T06:00:05.189Z,97.94
2018-02-14T06:01:05.890Z,97.09
2018-02-14T06:02:05.083Z,97.56
2018-02-14T06:03:05.046Z,97.56
2018-02-14T06:04:04.840Z,97.75
2018-02-14T06:05:04.846Z,97.56
2018-02-14T06:06:04.752Z,97.47
2018-02-14T06:07:04.680Z,97.85
2018-02-14T06:08:04.771Z,97.66
2018-02-14T06:09:04.789Z,97.47
2018-02-14T06:10:04.570Z,97.56
2018-02-14T06:11:04.529Z,97.38
2018-02-14T06:12:04.640Z,97.38
2018-02-14T06:13:04.386Z,97.85
2018-02-14T06:14:04.412Z,97.09
2018-02-14T06:15:04.262Z,97.19
2018-02-14T06:16:04.378Z,97.47
2018-02-14T06:17:04.339Z,97.75
2018-02-14T06:18:04.133Z,97.47
2018-02-14T06:19:04.116Z,97.19
2018-02-14T06:20:03.987Z,97.56
2018-02-14T06:21:03.986Z,97.47
2018-02-14T06:22:03.948Z,97.38
2018-02-14T06:23:03.885Z,96.81
2018-02-14T06:24:03.808Z,97.00
2018-02-14T06:25:03.772Z,97.00
2018-02-14T06:26:03.884Z,97.09
2018-02-14T06:27:03.793Z,96.91
2018-02-14T06:28:03.694Z,96.91
2018-02-14T06:29:03.556Z,96.06
2018-02-14T06:30:04.398Z,96.06
2018-02-14T06:31:03.439Z,96.01
2018-02-14T06:32:03.888Z,96.44
2018-02-14T06:33:03.312Z,96.62
2018-02-14T06:34:03.517Z,96.62
2018-02-14T06:35:03.372Z,96.62
2018-02-14T06:36:03.368Z,96.53
2018-02-14T06:37:03.275Z,96.81
2018-02-14T06:38:03.896Z,97.09
2018-02-14T06:39:03.053Z,97.56
2018-02-14T06:40:03.030Z,97.56
2018-02-14T06:41:02.912Z,97.56
2018-02-14T06:42:02.901Z,97.38
2018-02-14T06:43:02.868Z,97.56
2018-02-14T06:44:04.014Z,97.75
2018-02-14T06:45:02.809Z,97.75
2018-02-14T06:46:02.718Z,97.66
2018-02-14T06:47:02.756Z,97.38
2018-02-14T06:48:02.619Z,97.94
2018-02-14T06:49:02.657Z,97.19
2018-02-14T06:50:02.605Z,96.62
2018-02-14T06:51:02.903Z,96.53
2018-02-14T06:52:02.503Z,96.72
2018-02-14T06:53:02.532Z,96.72
2018-02-14T06:54:02.320Z,96.15
2018-02-14T06:55:02.180Z,96.81
2018-02-14T06:56:02.318Z,96.25
2018-02-14T06:57:02.887Z,96.53
2018-02-14T06:58:02.073Z,96.25
2018-02-14T06:59:02.040Z,96.53
2018-02-14T07:00:01.996Z,96.81
2018-02-14T07:01:02.052Z,96.91
2018-02-14T07:02:01.867Z,97.56
2018-02-14T07:03:01.900Z,97.38
2018-02-14T07:04:01.874Z,97.38
2018-02-14T07:05:01.713Z,97.75
2018-02-14T07:06:01.636Z,97.38
2018-02-14T07:07:01.733Z,97.38
2018-02-14T07:08:01.566Z,97.66
2018-02-14T07:09:01.537Z,98.32
2018-02-14T07:10:01.555Z,98.32
2018-02-14T07:11:01.408Z,97.66
2018-02-14T07:12:01.375Z,98.32
2018-02-14T07:13:01.410Z,98.41
2018-02-14T07:14:01.286Z,98.13
2018-02-14T07:15:01.322Z,98.03
2018-02-14T07:16:01.259Z,97.94
2018-02-14T07:17:01.237Z,97.56
2018-02-14T07:18:01.153Z,97.56
2018-02-14T07:19:01.018Z,97.38
2018-02-14T07:20:00.911Z,97.38
2018-02-14T07:21:00.896Z,97.66
2018-02-14T07:22:00.984Z,97.94
2018-02-14T07:23:00.919Z,97.75
2018-02-14T07:24:00.904Z,97.47
2018-02-14T07:25:00.679Z,97.38
2018-02-14T07:26:01.389Z,97.85
2018-02-14T07:27:00.674Z,97.75
2018-02-14T07:28:00.520Z,97.75
2018-02-14T07:29:00.632Z,97.56
2018-02-14T07:30:00.403Z,97.75
2018-02-14T07:31:00.890Z,97.24
2018-02-14T07:32:00.496Z,97.42
2018-02-14T07:33:00.226Z,97.42
2018-02-14T07:34:00.245Z,97.52
2018-02-14T07:35:00.161Z,97.42
2018-02-14T07:36:00.237Z,97.42
2018-02-14T07:37:00.098Z,97.80
2018-02-14T07:38:00.089Z,97.71
2018-02-14T07:38:59.964Z,98.08
2018-02-14T07:39:59.922Z,97.71
2018-02-14T07:41:00.045Z,97.80
2018-02-14T07:42:00.009Z,98.18
2018-02-14T07:42:59.723Z,98.36
2018-02-14T07:44:00.392Z,98.36
2018-02-14T07:44:59.773Z,98.08
2018-02-14T07:45:59.624Z,98.08
2018-02-14T07:46:59.554Z,98.36
2018-02-14T07:47:59.646Z,97.94
2018-02-14T07:48:59.479Z,97.94
2018-02-14T07:49:59.889Z,98.13
2018-02-14T07:50:59.367Z,98.41
2018-02-14T07:51:59.467Z,98.13
2018-02-14T07:52:59.358Z,98.51
2018-02-14T07:53:59.257Z,98.32
2018-02-14T07:54:59.224Z,98.23
2018-02-14T07:55:59.262Z,98.70
2018-02-14T07:56:59.051Z,98.98
2018-02-14T07:57:59.169Z,98.41
2018-02-14T07:58:59.071Z,98.13
2018-02-14T07:59:58.940Z,96.86
2018-02-14T08:00:58.866Z,96.20
2018-02-14T08:01:58.834Z,95.45
2018-02-14T08:02:58.757Z,95.07
2018-02-14T08:03:58.830Z,95.17
2018-02-14T08:04:58.855Z,95.45
2018-02-14T08:05:58.676Z,95.83
2018-02-14T08:06:58.567Z,95.92
2018-02-14T08:07:58.693Z,95.97
2018-02-14T08:08:58.632Z,94.74
2018-02-14T08:09:59.391Z,93.80
2018-02-14T08:10:58.541Z,92.57
2018-02-14T08:11:58.494Z,90.78
2018-02-14T08:12:58.458Z,88.98
2018-02-14T08:13:58.406Z,87.95
2018-02-14T08:14:58.259Z,86.72
2018-02-14T08:15:58.892Z,86.72
2018-02-14T08:16:58.162Z,86.29
2018-02-14T08:17:58.178Z,85.53
2018-02-14T08:18:58.158Z,85.06
2018-02-14T08:19:58.117Z,84.78
2018-02-14T08:20:58.104Z,83.74
2018-02-14T08:21:58.059Z,82.93
2018-02-14T08:22:57.892Z,82.18
2018-02-14T08:23:57.987Z,80.95
2018-02-14T08:24:57.804Z,81.33
2018-02-14T08:25:57.847Z,80.57
2018-02-14T08:26:57.752Z,80.66
2018-02-14T08:27:57.772Z,80.66
2018-02-14T08:28:57.809Z,80.44
2018-02-14T08:29:57.646Z,81.20
2018-02-14T08:30:57.497Z,82.42
2018-02-14T08:31:57.602Z,82.80
2018-02-14T08:32:57.523Z,83.93
2018-02-14T08:33:57.529Z,84.88
2018-02-14T08:34:57.312Z,85.21
2018-02-14T08:35:57.276Z,86.44
2018-02-14T08:36:57.278Z,86.91
2018-02-14T08:37:57.217Z,87.76
2018-02-14T08:38:57.327Z,87.85
2018-02-14T08:39:57.204Z,87.62
2018-02-14T08:40:57.086Z,87.43
2018-02-14T08:41:57.088Z,87.33
2018-02-14T08:42:57.190Z,87.24
2018-02-14T08:43:57.069Z,87.33
2018-02-14T08:44:56.883Z,86.90
2018-02-14T08:45:56.996Z,85.20
2018-02-14T08:46:56.803Z,83.97
2018-02-14T08:47:56.860Z,81.74
2018-02-14T08:48:57.394Z,80.43
2018-02-14T08:49:56.799Z,79.24
2018-02-14T08:50:56.753Z,77.82
2018-02-14T08:51:56.618Z,75.68
2018-02-14T08:52:56.656Z,75.02
2018-02-14T08:53:56.647Z,73.50
2018-02-14T08:54:56.600Z,73.13
2018-02-14T08:55:56.548Z,72.47
2018-02-14T08:56:56.492Z,71.99
2018-02-14T08:57:56.361Z,71.80
2018-02-14T08:58:56.299Z,71.99
2018-02-14T08:59:56.412Z,71.42
2018-02-14T09:00:56.273Z,71.61
2018-02-14T09:01:56.362Z,72.28
2018-02-14T09:02:56.323Z,72.28
2018-02-14T09:03:56.205Z,71.99
2018-02-14T09:04:56.109Z,71.14
2018-02-14T09:05:56.180Z,72.22
2018-02-14T09:06:56.147Z,70.61
2018-02-14T09:07:56.001Z,70.23
2018-02-14T09:08:55.966Z,70.14
2018-02-14T09:09:56.005Z,69.95
2018-02-14T09:10:55.920Z,69.85
2018-02-14T09:11:55.863Z,69.47
2018-02-14T09:12:55.932Z,69.13
2018-02-14T09:13:55.901Z,68.84
2018-02-14T09:14:55.865Z,69.76
2018-02-14T09:15:55.881Z,69.03
2018-02-14T09:16:55.682Z,69.79
2018-02-14T09:17:55.639Z,69.95
2018-02-14T09:18:55.651Z,69.89
2018-02-14T09:19:55.585Z,69.89
2018-02-14T09:20:55.583Z,70.32
2018-02-14T09:21:55.627Z,70.17
2018-02-14T09:22:55.536Z,70.14
2018-02-14T09:23:55.591Z,71.50
2018-02-14T09:24:55.906Z,71.08
2018-02-14T09:25:55.452Z,70.98
2018-02-14T09:26:55.400Z,70.79
2018-02-14T09:27:55.320Z,70.83
2018-02-14T09:28:55.231Z,69.89
2018-02-14T09:29:55.206Z,69.79
2018-02-14T09:30:55.250Z,68.88
2018-02-14T09:31:55.156Z,69.26
2018-02-14T09:32:55.908Z,68.69
2018-02-14T09:33:55.046Z,67.02
2018-02-14T09:34:55.068Z,66.45
2018-02-14T09:35:55.084Z,66.35
2018-02-14T09:36:54.964Z,65.88
2018-02-14T09:37:54.946Z,65.97
2018-02-14T09:38:55.419Z,65.22
2018-02-14T09:39:54.971Z,65.12
2018-02-14T09:40:54.917Z,64.93
2018-02-14T09:41:54.935Z,64.46
2018-02-14T09:42:54.775Z,64.17
2018-02-14T09:43:54.866Z,64.46
2018-02-14T09:44:54.800Z,64.84
2018-02-14T09:45:54.686Z,63.89
2018-02-14T09:46:54.759Z,63.82
2018-02-14T09:47:54.729Z,63.26
2018-02-14T09:48:54.565Z,63.89
2018-02-14T09:49:54.664Z,64.11
2018-02-14T09:50:54.478Z,63.35
2018-02-14T09:51:54.478Z,63.35
2018-02-14T09:52:54.469Z,63.45
2018-02-14T09:53:54.447Z,62.97
2018-02-14T09:54:54.497Z,63.35
2018-02-14T09:55:54.366Z,63.45
2018-02-14T09:56:54.297Z,62.59
2018-02-14T09:57:54.418Z,62.97
2018-02-14T09:58:54.318Z,62.97
2018-02-14T09:59:54.306Z,62.78
2018-02-14T10:00:54.307Z,62.88
2018-02-14T10:01:54.228Z,63.17
2018-02-14T10:02:54.270Z,63.54
2018-02-14T10:03:54.137Z,63.82
2018-02-14T10:04:54.074Z,64.11
2018-02-14T10:05:54.033Z,62.53
2018-02-14T10:06:54.010Z,62.62
2018-02-14T10:07:54.102Z,62.24
2018-02-14T10:08:54.112Z,62.62
2018-02-14T10:09:54.030Z,62.34
2018-02-14T10:10:54.045Z,61.77
2018-02-14T10:11:54.048Z,61.61
2018-02-14T10:12:54.425Z,61.61
2018-02-14T10:13:53.859Z,61.49
2018-02-14T10:14:53.783Z,61.77
2018-02-14T10:15:53.733Z,62.34
2018-02-14T10:16:53.742Z,62.53
2018-02-14T10:17:53.722Z,62.62
2018-02-14T10:18:53.668Z,62.91
2018-02-14T10:19:53.632Z,62.72
2018-02-14T10:20:53.730Z,62.43
2018-02-14T10:21:53.558Z,62.34
2018-02-14T10:22:53.592Z,62.34
2018-02-14T10:23:53.654Z,62.43
2018-02-14T10:24:53.512Z,63.10
2018-02-14T10:25:53.551Z,62.82
2018-02-14T10:26:53.925Z,63.64
2018-02-14T10:27:53.494Z,63.86
2018-02-14T10:28:53.384Z,64.43
2018-02-14T10:29:53.385Z,64.49
2018-02-14T10:30:53.425Z,64.43
2018-02-14T10:31:53.267Z,64.71
2018-02-14T10:32:53.312Z,63.29
2018-02-14T10:33:53.290Z,63.57
2018-02-14T10:34:53.202Z,64.24
2018-02-14T10:35:53.169Z,64.43
2018-02-14T10:36:53.251Z,63.51
2018-02-14T10:37:53.929Z,63.48
2018-02-14T10:38:53.112Z,63.76
2018-02-14T10:39:53.934Z,64.33
2018-02-14T10:40:53.091Z,64.33
2018-02-14T10:41:53.024Z,63.29
2018-02-14T10:42:53.013Z,63.95
2018-02-14T10:43:53.032Z,63.39
2018-02-14T10:44:52.992Z,63.29
2018-02-14T10:45:52.994Z,59.81
2018-02-14T10:46:52.981Z,61.71
2018-02-14T10:47:53.443Z,58.48
2018-02-14T10:48:52.942Z,53.92
2018-02-14T10:49:52.774Z,54.52
2018-02-14T10:50:52.760Z,53.09
2018-02-14T10:51:52.731Z,53.59
2018-02-14T10:52:52.808Z,51.53
2018-02-14T10:53:52.690Z,51.22
2018-02-14T10:54:52.607Z,51.91
2018-02-14T10:55:52.736Z,49.56
2018-02-14T10:56:52.604Z,49.30
2018-02-14T10:57:52.675Z,46.06
2018-02-14T10:58:52.505Z,45.45
2018-02-14T10:59:52.629Z,45.14
2018-02-14T11:00:52.464Z,47.58
2018-02-14T11:01:52.403Z,49.01
2018-02-14T11:02:52.478Z,49.68
2018-02-14T11:03:52.391Z,50.87
2018-02-14T11:04:52.478Z,47.66
2018-02-14T11:05:52.385Z,44.57
2018-02-14T11:06:52.328Z,45.80
2018-02-14T11:07:52.256Z,46.59
2018-02-14T11:08:52.318Z,46.06
2018-02-14T11:09:52.339Z,46.92
2018-02-14T11:10:52.177Z,48.89
2018-02-14T11:11:52.136Z,49.84
2018-02-14T11:12:52.116Z,50.03
2018-02-14T11:13:52.085Z,50.70
2018-02-14T11:14:52.086Z,48.96
2018-02-14T11:15:52.069Z,49.65
2018-02-14T11:16:52.002Z,49.46
2018-02-14T11:17:52.087Z,50.53
2018-02-14T11:18:51.988Z,49.79
2018-02-14T11:19:51.980Z,48.90
2018-02-14T11:20:52.004Z,46.06
2018-02-14T11:21:51.900Z,45.59
2018-02-14T11:22:52.450Z,43.40
2018-02-14T11:23:51.804Z,43.43
2018-02-14T11:24:52.453Z,44.64
2018-02-14T11:25:51.855Z,44.45
2018-02-14T11:26:51.852Z,44.81
2018-02-14T11:27:51.674Z,45.33
2018-02-14T11:28:51.729Z,46.49
2018-02-14T11:29:51.659Z,45.28
2018-02-14T11:30:51.601Z,42.71
2018-02-14T11:31:51.599Z,40.64
2018-02-14T11:32:51.629Z,39.57
2018-02-14T11:33:51.532Z,42.00
2018-02-14T11:34:51.532Z,43.12
2018-02-14T11:35:51.535Z,44.26
2018-02-14T11:36:51.473Z,44.85
2018-02-14T11:37:51.503Z,44.59
2018-02-14T11:38:51.531Z,44.00
2018-02-14T11:39:51.455Z,42.95
2018-02-14T11:40:51.333Z,42.97
2018-02-14T11:41:51.480Z,43.85
2018-02-14T11:42:51.271Z,42.99
2018-02-14T11:43:51.275Z,40.39
2018-02-14T11:44:51.962Z,39.74
2018-02-14T11:45:51.283Z,38.81
2018-02-14T11:46:51.293Z,39.04
2018-02-14T11:47:51.158Z,42.36
2018-02-14T11:48:51.140Z,43.84
2018-02-14T11:49:51.108Z,44.90
2018-02-14T11:50:51.180Z,43.95
2018-02-14T11:51:51.172Z,43.93
2018-02-14T11:52:51.012Z,44.81
2018-02-14T11:53:51.019Z,45.57
2018-02-14T11:54:50.965Z,46.14
2018-02-14T11:55:50.924Z,46.11
2018-02-14T11:56:51.049Z,45.07
2018-02-14T11:57:50.869Z,45.38
2018-02-14T11:58:50.861Z,44.17
2018-02-14T11:59:50.921Z,44.38
2018-02-14T12:00:50.960Z,40.20
2018-02-14T12:01:51.472Z,39.62
2018-02-14T12:02:50.854Z,41.24
2018-02-14T12:03:51.470Z,40.69
2018-02-14T12:04:50.756Z,40.31
2018-02-14T12:05:50.828Z,37.76
2018-02-14T12:06:50.770Z,37.71
2018-02-14T12:07:50.657Z,41.22
2018-02-14T12:08:50.636Z,43.12
2018-02-14T12:09:50.712Z,42.36
2018-02-14T12:10:50.531Z,43.86
2018-02-14T12:11:50.525Z,44.98
2018-02-14T12:12:50.442Z,45.64
2018-02-14T12:13:50.433Z,44.90
2018-02-14T12:14:50.556Z,43.41
2018-02-14T12:15:50.385Z,40.95
2018-02-14T12:16:50.405Z,39.91
2018-02-14T12:17:50.471Z,40.63
2018-02-14T12:18:50.320Z,46.30
2018-02-14T12:19:50.280Z,44.73
2018-02-14T12:20:50.260Z,42.13
2018-02-14T12:21:50.206Z,42.24
2018-02-14T12:22:50.227Z,43.98
2018-02-14T12:23:50.177Z,42.60
2018-02-14T12:24:50.145Z,44.79
2018-02-14T12:25:50.107Z,45.92
2018-02-14T12:26:50.075Z,43.93
2018-02-14T12:27:50.102Z,43.84
2018-02-14T12:28:50.046Z,43.95
2018-02-14T12:29:50.065Z,42.22
2018-02-14T12:30:50.167Z,44.12
2018-02-14T12:31:50.479Z,44.20
2018-02-14T12:32:50.089Z,44.98
2018-02-14T12:33:49.886Z,46.49
2018-02-14T12:34:49.879Z,45.83
2018-02-14T12:35:49.893Z,46.66
2018-02-14T12:36:49.796Z,48.18
2018-02-14T12:37:49.780Z,49.10
2018-02-14T12:38:49.752Z,49.88
2018-02-14T12:39:49.701Z,49.15
2018-02-14T12:40:49.692Z,48.77
2018-02-14T12:41:49.618Z,50.67
2018-02-14T12:42:49.681Z,47.71
2018-02-14T12:43:49.835Z,47.82
2018-02-14T12:44:49.585Z,47.44
2018-02-14T12:45:49.676Z,48.08
2018-02-14T12:46:49.633Z,49.03
2018-02-14T12:47:49.521Z,49.05
2018-02-14T12:48:49.431Z,46.66
2018-02-14T12:49:49.561Z,47.80
2018-02-14T12:50:49.374Z,49.03
2018-02-14T12:51:49.345Z,49.41